createdAt,value
2018-10-07T00:00:06.154Z,0.00
2018-10-07T00:01:37.723Z,0.00
2018-10-07T00:03:09.294Z,0.00
2018-10-07T00:04:40.863Z,0.00
2018-10-07T00:06:12.435Z,0.00
2018-10-07T00:07:44.206Z,0.00
2018-10-07T00:09:15.673Z,0.00
2018-10-07T00:10:47.142Z,0.00
2018-10-07T00:12:18.717Z,0.00
2018-10-07T00:13:50.276Z,0.00
2018-10-07T00:15:22.397Z,0.00
2018-10-07T00:18:24.987Z,0.00
2018-10-07T00:19:56.557Z,0.00
2018-10-07T00:21:28.427Z,0.00
2018-10-07T00:22:59.899Z,0.00
2018-10-07T00:24:31.265Z,0.00
2018-10-07T00:26:02.835Z,0.00
2018-10-07T00:27:35.155Z,0.00
2018-10-07T00:29:05.980Z,0.00
2018-10-07T00:30:37.545Z,0.00
2018-10-07T00:32:09.118Z,0.00
2018-10-07T00:33:41.312Z,0.00
2018-10-07T00:35:12.253Z,0.00
2018-10-07T00:36:43.823Z,0.00
2018-10-07T00:38:15.394Z,0.00
2018-10-07T00:39:46.963Z,0.00
2018-10-07T00:41:18.536Z,0.00
2018-10-07T00:42:50.105Z,0.00
2018-10-07T00:44:21.673Z,0.00
2018-10-07T00:45:53.244Z,0.00
2018-10-07T00:47:24.814Z,0.00
2018-10-07T00:48:56.385Z,0.00
2018-10-07T00:50:27.954Z,0.00
2018-10-07T00:51:59.626Z,0.00
2018-10-07T00:53:31.094Z,0.00
2018-10-07T00:55:02.663Z,0.00
2018-10-07T00:56:34.234Z,0.00
2018-10-07T00:58:05.901Z,0.00
2018-10-07T00:59:37.371Z,0.00
2018-10-07T01:01:08.940Z,0.00
2018-10-07T01:02:40.512Z,0.00
2018-10-07T01:04:12.082Z,0.00
2018-10-07T01:05:43.650Z,0.00
2018-10-07T01:07:15.224Z,0.00
2018-10-07T01:08:46.791Z,0.00
2018-10-07T01:10:18.460Z,0.00
2018-10-07T01:11:49.929Z,0.00
2018-10-07T01:13:21.526Z,0.00
2018-10-07T01:14:53.070Z,0.00
2018-10-07T01:16:24.639Z,0.00
2018-10-07T01:17:56.208Z,0.00
2018-10-07T01:19:27.779Z,0.00
2018-10-07T01:20:59.349Z,0.00
2018-10-07T01:22:31.219Z,0.00
2018-10-07T01:24:02.488Z,0.00
2018-10-07T01:25:34.057Z,0.00
2018-10-07T01:27:05.633Z,0.00
2018-10-07T01:28:37.498Z,0.00
2018-10-07T01:30:08.768Z,0.00
2018-10-07T01:31:40.337Z,0.00
2018-10-07T01:33:11.907Z,0.00
2018-10-07T01:34:43.476Z,0.00
2018-10-07T01:36:15.046Z,0.00
2018-10-07T01:37:46.625Z,0.00
2018-10-07T01:39:18.185Z,0.00
2018-10-07T01:40:49.755Z,0.00
2018-10-07T01:42:21.325Z,0.00
2018-10-07T01:43:52.896Z,0.00
2018-10-07T01:45:24.464Z,0.00
2018-10-07T01:46:56.286Z,0.00
2018-10-07T01:48:27.604Z,0.00
2018-10-07T01:49:59.193Z,0.00
2018-10-07T01:51:30.747Z,0.00
2018-10-07T01:53:02.313Z,0.00
2018-10-07T01:54:33.885Z,0.00
2018-10-07T01:56:05.457Z,0.00
2018-10-07T01:57:37.022Z,0.00
2018-10-07T01:59:08.695Z,0.00
2018-10-07T02:00:40.163Z,0.00
2018-10-07T02:02:11.733Z,0.00
2018-10-07T02:03:43.302Z,0.00
2018-10-07T02:05:15.029Z,0.00
2018-10-07T02:06:46.442Z,0.00
2018-10-07T02:08:18.013Z,0.00
2018-10-07T02:09:49.584Z,0.00
2018-10-07T02:11:21.151Z,0.00
2018-10-07T02:12:52.721Z,0.00
2018-10-07T02:14:24.290Z,0.00
2018-10-07T02:15:56.212Z,0.00
2018-10-07T02:17:27.430Z,0.00
2018-10-07T02:18:59.591Z,0.00
2018-10-07T02:20:30.573Z,0.00
2018-10-07T02:22:02.139Z,0.00
2018-10-07T02:23:34.109Z,0.00
2018-10-07T02:25:05.278Z,0.00
2018-10-07T02:26:36.848Z,0.00
2018-10-07T02:28:09.020Z,0.00
2018-10-07T02:29:39.988Z,0.00
2018-10-07T02:31:11.558Z,0.00
2018-10-07T02:32:43.128Z,0.00
2018-10-07T02:34:14.697Z,0.00
2018-10-07T02:35:46.268Z,0.00
2018-10-07T02:37:17.851Z,0.00
2018-10-07T02:38:49.413Z,0.00
2018-10-07T02:40:20.978Z,0.00
2018-10-07T02:41:52.697Z,0.00
2018-10-07T02:43:24.116Z,0.00
2018-10-07T02:44:55.692Z,0.00
2018-10-07T02:46:27.257Z,0.00
2018-10-07T02:47:58.828Z,0.00
2018-10-07T02:49:30.397Z,0.00
2018-10-07T02:51:01.968Z,0.00
2018-10-07T02:52:33.537Z,0.00
2018-10-07T02:54:05.410Z,0.00
2018-10-07T02:55:36.677Z,0.00
2018-10-07T02:57:08.247Z,0.00
2018-10-07T02:58:39.816Z,0.00
2018-10-07T03:00:11.588Z,0.00
2018-10-07T03:01:42.958Z,0.00
2018-10-07T03:03:14.526Z,0.00
2018-10-07T03:04:46.150Z,0.00
2018-10-07T03:06:17.666Z,0.00
2018-10-07T03:07:49.237Z,0.00
2018-10-07T03:09:20.805Z,0.00
2018-10-07T03:10:52.377Z,0.00
2018-10-07T03:12:24.046Z,0.00
2018-10-07T03:13:55.517Z,0.00
2018-10-07T03:15:27.095Z,0.00
2018-10-07T03:16:58.858Z,0.00
2018-10-07T03:18:30.327Z,0.00
2018-10-07T03:20:01.795Z,0.00
2018-10-07T03:21:33.365Z,0.00
2018-10-07T03:23:04.935Z,0.00
2018-10-07T03:24:36.505Z,0.00
2018-10-07T03:26:08.075Z,0.00
2018-10-07T03:27:39.645Z,0.00
2018-10-07T03:29:11.216Z,0.00
2018-10-07T03:30:42.786Z,0.00
2018-10-07T03:32:14.363Z,0.00
2018-10-07T03:33:46.229Z,0.00
2018-10-07T03:35:17.496Z,0.00
2018-10-07T03:36:49.170Z,0.00
2018-10-07T03:38:20.634Z,0.00
2018-10-07T03:39:52.204Z,0.00
2018-10-07T03:41:23.788Z,0.00
2018-10-07T03:42:55.648Z,0.00
2018-10-07T03:44:26.915Z,0.00
2018-10-07T03:45:58.485Z,0.00
2018-10-07T03:47:30.056Z,0.00
2018-10-07T03:49:01.626Z,0.00
2018-10-07T03:50:33.196Z,0.00
2018-10-07T03:52:04.764Z,0.00
2018-10-07T03:53:36.338Z,0.00
2018-10-07T03:55:08.307Z,0.00
2018-10-07T03:56:39.475Z,0.00
2018-10-07T03:58:11.045Z,0.00
2018-10-07T03:59:42.616Z,0.00
2018-10-07T04:01:14.285Z,0.00
2018-10-07T04:02:45.756Z,0.00
2018-10-07T04:04:17.324Z,0.00
2018-10-07T04:05:48.896Z,0.00
2018-10-07T04:08:52.541Z,0.00
2018-10-07T04:10:23.606Z,0.00
2018-10-07T04:11:55.179Z,0.00
2018-10-07T04:13:26.746Z,0.00
2018-10-07T04:14:58.617Z,0.00
2018-10-07T04:16:29.886Z,0.00
2018-10-07T04:18:01.457Z,0.00
2018-10-07T04:19:33.027Z,0.00
2018-10-07T04:21:04.594Z,0.00
2018-10-07T04:22:36.166Z,0.00
2018-10-07T04:24:07.737Z,0.00
2018-10-07T04:25:39.305Z,0.00
2018-10-07T04:27:10.878Z,0.00
2018-10-07T04:28:42.444Z,0.00
2018-10-07T04:30:14.015Z,0.00
2018-10-07T04:31:46.113Z,0.00
2018-10-07T04:33:17.255Z,0.00
2018-10-07T04:34:48.724Z,0.00
2018-10-07T04:36:20.295Z,0.00
2018-10-07T04:37:51.865Z,0.00
2018-10-07T04:39:23.436Z,0.00
2018-10-07T04:40:55.004Z,0.00
2018-10-07T04:42:26.574Z,0.00
2018-10-07T04:43:58.145Z,0.00
2018-10-07T04:45:29.813Z,0.00
2018-10-07T04:47:01.283Z,0.00
2018-10-07T04:48:32.853Z,0.00
2018-10-07T04:50:04.424Z,0.00
2018-10-07T04:51:36.094Z,0.00
2018-10-07T04:53:07.564Z,0.00
2018-10-07T04:54:39.133Z,0.00
2018-10-07T04:56:10.703Z,0.00
2018-10-07T04:57:42.272Z,0.00
2018-10-07T04:59:13.843Z,0.00
2018-10-07T05:00:45.412Z,0.00
2018-10-07T05:02:16.984Z,0.00
2018-10-07T05:03:48.558Z,0.00
2018-10-07T05:05:20.123Z,0.00
2018-10-07T05:06:51.693Z,0.00
2018-10-07T05:08:23.263Z,0.00
2018-10-07T05:09:54.933Z,0.00
2018-10-07T05:11:26.401Z,0.00
2018-10-07T05:12:58.276Z,0.00
2018-10-07T05:14:29.540Z,0.00
2018-10-07T05:16:01.111Z,0.00
2018-10-07T05:17:32.679Z,0.00
2018-10-07T05:19:04.253Z,0.00
2018-10-07T05:20:35.820Z,0.00
2018-10-07T05:22:07.398Z,0.00
2018-10-07T05:25:10.526Z,0.00
2018-10-07T05:26:42.096Z,0.00
2018-10-07T05:28:13.765Z,0.00
2018-10-07T05:29:45.234Z,0.00
2018-10-07T05:31:16.803Z,0.00
2018-10-07T05:32:48.373Z,0.00
2018-10-07T05:34:20.044Z,0.00
2018-10-07T05:35:51.514Z,0.00
2018-10-07T05:37:23.082Z,0.00
2018-10-07T05:40:26.219Z,0.00
2018-10-07T05:41:57.789Z,0.00
2018-10-07T05:43:29.361Z,0.00
2018-10-07T05:45:00.931Z,0.00
2018-10-07T05:46:33.149Z,0.00
2018-10-07T05:48:04.067Z,0.00
2018-10-07T05:49:35.640Z,0.00
2018-10-07T05:51:07.206Z,0.00
2018-10-07T05:52:38.775Z,0.00
2018-10-07T05:54:10.345Z,0.00
2018-10-07T05:55:41.936Z,0.00
2018-10-07T05:57:13.484Z,0.00
2018-10-07T05:58:45.354Z,0.00
2018-10-07T06:00:16.624Z,0.00
2018-10-07T06:01:48.269Z,0.00
2018-10-07T06:03:19.761Z,0.00
2018-10-07T06:06:23.003Z,0.00
2018-10-07T06:07:54.472Z,0.00
2018-10-07T06:09:26.039Z,0.00
2018-10-07T06:10:57.913Z,0.00
2018-10-07T06:12:29.178Z,0.00
2018-10-07T06:14:00.748Z,0.00
2018-10-07T06:15:32.318Z,0.00
2018-10-07T06:17:03.887Z,0.00
2018-10-07T06:18:35.457Z,0.00
2018-10-07T06:20:07.027Z,0.00
2018-10-07T06:21:38.604Z,0.00
2018-10-07T06:23:10.165Z,0.00
2018-10-07T06:24:41.835Z,0.00
2018-10-07T06:26:13.308Z,0.00
2018-10-07T06:27:44.874Z,0.00
2018-10-07T06:29:16.445Z,0.00
2018-10-07T06:30:48.015Z,0.00
2018-10-07T06:32:19.583Z,0.00
2018-10-07T06:33:51.156Z,0.00
2018-10-07T06:35:22.723Z,0.00
2018-10-07T06:36:54.393Z,0.00
2018-10-07T06:38:25.868Z,0.00
2018-10-07T06:39:57.470Z,0.00
2018-10-07T06:41:29.002Z,0.00
2018-10-07T06:43:00.673Z,0.00
2018-10-07T06:44:32.141Z,0.00
2018-10-07T06:46:03.711Z,0.00
2018-10-07T06:47:35.282Z,0.00
2018-10-07T06:49:06.851Z,0.00
2018-10-07T06:50:38.423Z,0.00
2018-10-07T06:52:09.990Z,0.00
2018-10-07T06:53:42.695Z,0.00
2018-10-07T06:55:13.130Z,0.00
2018-10-07T06:56:44.700Z,0.00
2018-10-07T06:58:16.270Z,0.00
2018-10-07T06:59:47.913Z,0.00
2018-10-07T07:01:19.813Z,0.00
2018-10-07T07:02:50.980Z,0.00
2018-10-07T07:04:22.550Z,0.00
2018-10-07T07:05:54.648Z,0.00
2018-10-07T07:07:25.790Z,0.00
2018-10-07T07:08:57.263Z,0.00
2018-10-07T07:10:28.830Z,0.00
2018-10-07T07:12:00.399Z,0.00
2018-10-07T07:13:31.969Z,0.00
2018-10-07T07:15:03.540Z,0.00
2018-10-07T07:16:35.111Z,0.00
2018-10-07T07:18:06.679Z,0.00
2018-10-07T07:19:38.355Z,0.00
2018-10-07T07:21:09.817Z,0.00
2018-10-07T07:22:41.387Z,0.00
2018-10-07T07:24:12.957Z,0.00
2018-10-07T07:25:45.056Z,0.00
2018-10-07T07:27:16.099Z,0.00
2018-10-07T07:28:47.669Z,0.00
2018-10-07T07:30:19.240Z,0.00
2018-10-07T07:31:50.813Z,0.00
2018-10-07T07:33:22.388Z,0.00
2018-10-07T07:34:53.948Z,0.00
2018-10-07T07:36:25.517Z,0.00
2018-10-07T07:37:57.291Z,0.00
2018-10-07T07:39:28.657Z,0.00
2018-10-07T07:41:00.227Z,0.00
2018-10-07T07:42:31.884Z,0.00
2018-10-07T07:44:03.367Z,0.00
2018-10-07T07:45:34.936Z,0.00
2018-10-07T07:47:06.507Z,0.00
2018-10-07T07:48:38.082Z,0.00
2018-10-07T07:50:09.645Z,0.00
2018-10-07T07:51:41.522Z,0.00
2018-10-07T07:53:12.785Z,0.00
2018-10-07T07:54:44.356Z,0.00
2018-10-07T07:56:16.025Z,0.00
2018-10-07T07:57:47.495Z,0.00
2018-10-07T07:59:19.065Z,0.00
2018-10-07T08:00:50.938Z,0.00
2018-10-07T08:02:22.206Z,0.00
2018-10-07T08:03:53.775Z,0.00
2018-10-07T08:05:25.345Z,0.00
2018-10-07T08:06:56.914Z,0.00
2018-10-07T08:08:28.586Z,0.00
2018-10-07T08:10:00.056Z,0.00
2018-10-07T08:11:31.628Z,0.00
2018-10-07T08:13:03.198Z,0.00
2018-10-07T08:14:34.864Z,0.00
2018-10-07T08:16:06.336Z,0.00
2018-10-07T08:17:37.914Z,0.00
2018-10-07T08:19:09.473Z,0.00
2018-10-07T08:20:41.043Z,0.00
2018-10-07T08:22:12.613Z,0.00
2018-10-07T08:23:44.238Z,4.00
2018-10-07T08:25:15.753Z,4.00
2018-10-07T08:26:47.323Z,4.00
2018-10-07T08:28:18.893Z,8.00
2018-10-07T08:29:50.469Z,16.00
2018-10-07T08:31:22.038Z,20.00
2018-10-07T08:32:53.905Z,28.00
2018-10-07T08:34:25.191Z,36.00
2018-10-07T08:35:56.744Z,48.00
2018-10-07T08:37:28.312Z,68.00
2018-10-07T08:39:00.193Z,88.00
2018-10-07T08:40:31.453Z,108.00
2018-10-07T08:42:03.028Z,128.00
2018-10-07T08:43:34.593Z,148.00
2018-10-07T08:45:06.161Z,164.00
2018-10-07T08:46:37.734Z,196.00
2018-10-07T08:48:09.302Z,228.00
2018-10-07T08:49:40.911Z,268.00
2018-10-07T08:51:12.543Z,328.00
2018-10-07T08:52:44.012Z,372.00
2018-10-07T08:54:15.584Z,420.00
2018-10-07T08:57:18.723Z,620.00
2018-10-07T08:58:50.497Z,804.00
2018-10-07T09:00:22.373Z,996.00
2018-10-07T09:01:53.443Z,1064.00
2018-10-07T09:03:25.302Z,1104.00
2018-10-07T09:06:28.142Z,1260.00
2018-10-07T09:07:59.711Z,1328.00
2018-10-07T09:09:31.383Z,1376.00
2018-10-07T09:11:02.895Z,1572.00
2018-10-07T09:12:34.628Z,1500.00
2018-10-07T09:14:06.503Z,1432.00
2018-10-07T09:15:37.563Z,1568.00
2018-10-07T09:17:09.133Z,1808.00
2018-10-07T09:18:41.263Z,2256.00
2018-10-07T09:20:12.650Z,2464.00
2018-10-07T09:21:43.844Z,3024.00
2018-10-07T09:23:15.816Z,3056.00
2018-10-07T09:24:46.982Z,2812.00
2018-10-07T09:26:18.560Z,2400.00
2018-10-07T09:27:50.426Z,2268.00
2018-10-07T09:29:21.897Z,2308.00
2018-10-07T09:30:53.265Z,2596.00
2018-10-07T09:32:24.856Z,2820.00
2018-10-07T09:35:28.279Z,3288.00
2018-10-07T09:36:59.546Z,3520.00
2018-10-07T09:38:31.118Z,3600.00
2018-10-07T09:41:34.561Z,4004.00
2018-10-07T09:46:08.973Z,4328.00
2018-10-07T09:47:41.543Z,3928.00
2018-10-07T09:49:12.111Z,4148.00
2018-10-07T09:52:15.325Z,4260.00
2018-10-07T09:53:46.820Z,4324.00
2018-10-07T09:56:49.961Z,4424.00
2018-10-07T09:58:21.540Z,4796.00
2018-10-07T09:59:53.106Z,6024.00
2018-10-07T10:01:24.729Z,7756.00
2018-10-07T10:02:56.246Z,8808.00
2018-10-07T10:06:00.400Z,9956.00
2018-10-07T10:09:02.730Z,9584.00
2018-10-07T10:10:34.099Z,9688.00
2018-10-07T10:12:05.770Z,9540.00
2018-10-07T10:15:08.813Z,9840.00
2018-10-07T10:16:40.686Z,9920.00
2018-10-07T10:18:12.160Z,9824.00
2018-10-07T10:22:46.669Z,10552.00
2018-10-07T10:24:18.440Z,10740.00
2018-10-07T10:25:50.340Z,11232.00
2018-10-07T10:27:21.385Z,11696.00
2018-10-07T10:28:53.157Z,12216.00
2018-10-07T10:34:59.443Z,14916.00
2018-10-07T10:36:30.816Z,15156.00
2018-10-07T10:38:02.389Z,13836.00
2018-10-07T10:39:34.023Z,11480.00
2018-10-07T10:41:05.833Z,9492.00
2018-10-07T10:44:08.674Z,7464.00
2018-10-07T10:45:40.454Z,8156.00
2018-10-07T10:47:11.917Z,9772.00
2018-10-07T10:48:43.391Z,11892.00
2018-10-07T10:50:15.164Z,14676.00
2018-10-07T10:51:46.565Z,16432.00
2018-10-07T10:54:49.677Z,14952.00
2018-10-07T10:56:21.251Z,13648.00
2018-10-07T10:57:53.127Z,13556.00
2018-10-07T10:59:24.399Z,14580.00
2018-10-07T11:02:27.640Z,16424.00
2018-10-07T11:03:59.313Z,16028.00
2018-10-07T11:05:30.682Z,14696.00
2018-10-07T11:07:02.261Z,13184.00
2018-10-07T11:08:33.828Z,11808.00
2018-10-07T11:10:05.400Z,11536.00
2018-10-07T11:11:36.973Z,12304.00
2018-10-07T11:13:08.545Z,12016.00
2018-10-07T11:14:40.323Z,11764.00
2018-10-07T11:17:43.906Z,13524.00
2018-10-07T11:19:14.834Z,14640.00
2018-10-07T11:20:46.505Z,15412.00
2018-10-07T11:22:17.977Z,14820.00
2018-10-07T11:23:50.482Z,14676.00
2018-10-07T11:26:53.631Z,11220.00
2018-10-07T11:28:24.996Z,10352.00
2018-10-07T11:29:55.838Z,9604.00
2018-10-07T11:32:58.981Z,10472.00
2018-10-07T11:34:30.554Z,12228.00
2018-10-07T11:36:02.127Z,13164.00
2018-10-07T11:37:34.226Z,12628.00
2018-10-07T11:39:06.302Z,11532.00
2018-10-07T11:40:36.888Z,9912.00
2018-10-07T11:42:08.413Z,9164.00
2018-10-07T11:46:44.062Z,8776.00
2018-10-07T11:49:46.277Z,9348.00
2018-10-07T11:51:17.847Z,9184.00
2018-10-07T11:52:49.503Z,9380.00
2018-10-07T11:54:21.189Z,10444.00
2018-10-07T11:55:52.760Z,11784.00
2018-10-07T11:57:24.130Z,11192.00
2018-10-07T11:58:55.902Z,10140.00
2018-10-07T12:01:59.150Z,8784.00
2018-10-07T12:03:30.414Z,8580.00
2018-10-07T12:05:01.986Z,9324.00
2018-10-07T12:06:34.084Z,10880.00
2018-10-07T12:11:09.202Z,20832.00
2018-10-07T12:12:39.841Z,22656.00
2018-10-07T12:15:42.985Z,26560.00
2018-10-07T12:18:46.225Z,23456.00
2018-10-07T12:20:17.902Z,21760.00
2018-10-07T12:21:49.473Z,22144.00
2018-10-07T12:23:20.840Z,20704.00
2018-10-07T12:24:52.517Z,21312.00
2018-10-07T12:26:23.984Z,20736.00
2018-10-07T12:27:55.560Z,21184.00
2018-10-07T12:29:27.331Z,20192.00
2018-10-07T12:30:58.906Z,19488.00
2018-10-07T12:32:30.271Z,19456.00
2018-10-07T12:34:01.844Z,19616.00
2018-10-07T12:37:05.693Z,21632.00
2018-10-07T12:38:36.761Z,21824.00
2018-10-07T12:40:08.335Z,21024.00
2018-10-07T12:44:43.378Z,24896.00
2018-10-07T12:46:14.420Z,28768.00
2018-10-07T12:47:45.996Z,28224.00
2018-10-07T12:49:17.580Z,28928.00
2018-10-07T12:52:21.338Z,23840.00
2018-10-07T12:53:52.522Z,25536.00
2018-10-07T12:56:55.737Z,27872.00
2018-10-07T12:58:27.003Z,30560.00
2018-10-07T13:03:01.727Z,39616.00
2018-10-07T13:04:33.296Z,37728.00
2018-10-07T13:06:05.399Z,41472.00
2018-10-07T13:10:39.693Z,35232.00
2018-10-07T13:13:42.743Z,30016.00
2018-10-07T13:15:14.620Z,28928.00
2018-10-07T13:16:45.891Z,26144.00
2018-10-07T13:18:17.466Z,24128.00
2018-10-07T13:19:49.251Z,23328.00
2018-10-07T13:21:20.616Z,21920.00
2018-10-07T13:22:52.189Z,20064.00
2018-10-07T13:24:23.764Z,20448.00
2018-10-07T13:27:26.914Z,33664.00
2018-10-07T13:28:58.891Z,34912.00
2018-10-07T13:32:01.640Z,40896.00
2018-10-07T13:33:33.245Z,37728.00
2018-10-07T13:35:05.415Z,34720.00
2018-10-07T13:36:36.362Z,34016.00
2018-10-07T13:38:08.872Z,39264.00
2018-10-07T13:39:39.515Z,37312.00
2018-10-07T13:41:11.290Z,33280.00
2018-10-07T13:44:14.239Z,36864.00
2018-10-07T13:45:45.815Z,40640.00
2018-10-07T13:47:17.490Z,40096.00
2018-10-07T13:50:20.542Z,39296.00
2018-10-07T13:51:52.320Z,34528.00
2018-10-07T13:53:23.966Z,34784.00
2018-10-07T13:57:58.423Z,36032.00
2018-10-07T13:59:30.103Z,38752.00
2018-10-07T14:02:33.155Z,47616.00
2018-10-07T14:04:04.730Z,43488.00
2018-10-07T14:05:36.407Z,43104.00
2018-10-07T14:07:08.089Z,48192.00
2018-10-07T14:08:39.460Z,53504.00
2018-10-07T14:11:43.750Z,47200.00
2018-10-07T14:16:17.552Z,46112.00
2018-10-07T14:17:48.927Z,39168.00
2018-10-07T14:19:20.709Z,36896.00
2018-10-07T14:20:52.285Z,34752.00
2018-10-07T14:23:55.986Z,32448.00
2018-10-07T14:25:27.016Z,30080.00
2018-10-07T14:30:01.952Z,26592.00
2018-10-07T14:33:05.211Z,33248.00
2018-10-07T14:34:36.277Z,30592.00
2018-10-07T14:36:07.854Z,26464.00
2018-10-07T14:39:11.050Z,31264.00
2018-10-07T14:40:43.516Z,34752.00
2018-10-07T14:42:14.260Z,33088.00
2018-10-07T14:46:49.195Z,24928.00
2018-10-07T14:48:20.469Z,23872.00
2018-10-07T14:49:52.044Z,25632.00
2018-10-07T14:51:23.622Z,28640.00
2018-10-07T14:52:55.197Z,32448.00
2018-10-07T14:54:26.775Z,40640.00
2018-10-07T14:55:58.351Z,49344.00
2018-10-07T14:57:30.139Z,50496.00
2018-10-07T14:59:01.504Z,47968.00
2018-10-07T15:00:33.181Z,66944.00
2018-10-07T15:02:04.864Z,53856.00
2018-10-07T15:03:36.236Z,61696.00
2018-10-07T15:06:40.102Z,71776.00
2018-10-07T15:08:10.975Z,64416.00
2018-10-07T15:11:14.133Z,51136.00
2018-10-07T15:14:17.296Z,35808.00
2018-10-07T15:17:20.457Z,33600.00
2018-10-07T15:18:52.039Z,33856.00
2018-10-07T15:20:23.917Z,35488.00
2018-10-07T15:21:55.396Z,30976.00
2018-10-07T15:23:26.774Z,27200.00
2018-10-07T15:24:58.555Z,25408.00
2018-10-07T15:28:01.512Z,25152.00
2018-10-07T15:31:04.871Z,19840.00
2018-10-07T15:34:08.451Z,14948.00
2018-10-07T15:35:39.638Z,13848.00
2018-10-07T15:38:42.557Z,14528.00
2018-10-07T15:40:14.233Z,15368.00
2018-10-07T15:43:17.289Z,17952.00
2018-10-07T15:44:48.865Z,19040.00
2018-10-07T15:46:20.693Z,18560.00
2018-10-07T15:47:52.021Z,18112.00
2018-10-07T15:49:23.594Z,20544.00
2018-10-07T15:53:59.053Z,17708.00
2018-10-07T15:55:30.100Z,19392.00
2018-10-07T15:57:01.481Z,18068.00
2018-10-07T15:58:33.050Z,17972.00
2018-10-07T16:00:05.028Z,17320.00
2018-10-07T16:01:36.203Z,16808.00
2018-10-07T16:04:39.883Z,16448.00
2018-10-07T16:06:11.560Z,17592.00
2018-10-07T16:07:42.811Z,19328.00
2018-10-07T16:09:14.084Z,17828.00
2018-10-07T16:10:45.661Z,19456.00
2018-10-07T16:12:17.337Z,20288.00
2018-10-07T16:13:48.813Z,18432.00
2018-10-07T16:15:20.388Z,17312.00
2018-10-07T16:18:23.984Z,16864.00
2018-10-07T16:19:56.251Z,17656.00
2018-10-07T16:24:30.154Z,17932.00
2018-10-07T16:26:01.730Z,18400.00
2018-10-07T16:27:32.995Z,16884.00
2018-10-07T16:29:05.099Z,15384.00
2018-10-07T16:30:36.147Z,14756.00
2018-10-07T16:32:07.806Z,13668.00
2018-10-07T16:33:39.883Z,12156.00
2018-10-07T16:35:10.873Z,10508.00
2018-10-07T16:38:14.424Z,10164.00
2018-10-07T16:39:45.597Z,9868.00
2018-10-07T16:41:17.172Z,10112.00
2018-10-07T16:42:48.746Z,12040.00
2018-10-07T16:44:20.322Z,13848.00
2018-10-07T16:45:51.896Z,14004.00
2018-10-07T16:47:23.673Z,14684.00
2018-10-07T16:48:55.574Z,15304.00
2018-10-07T16:51:58.721Z,17620.00
2018-10-07T16:56:32.918Z,11896.00
2018-10-07T16:58:04.595Z,9812.00
2018-10-07T16:59:36.068Z,8160.00
2018-10-07T17:01:07.644Z,7464.00
2018-10-07T17:02:39.218Z,7640.00
2018-10-07T17:04:10.871Z,7528.00
2018-10-07T17:05:42.369Z,8144.00
2018-10-07T17:07:13.943Z,8500.00
2018-10-07T17:08:46.047Z,9940.00
2018-10-07T17:10:17.197Z,9648.00
2018-10-07T17:11:48.677Z,8652.00
2018-10-07T17:13:20.343Z,7580.00
2018-10-07T17:17:55.374Z,8500.00
2018-10-07T17:19:26.538Z,7344.00
2018-10-07T17:22:30.420Z,8600.00
2018-10-07T17:24:01.767Z,7004.00
2018-10-07T17:25:32.834Z,6912.00
2018-10-07T17:27:05.014Z,8288.00
2018-10-07T17:28:36.182Z,8656.00
2018-10-07T17:31:39.128Z,8552.00
2018-10-07T17:33:10.701Z,7952.00
2018-10-07T17:34:42.277Z,7860.00
2018-10-07T17:37:45.522Z,7680.00
2018-10-07T17:40:48.597Z,8988.00
2018-10-07T17:42:20.139Z,6808.00
2018-10-07T17:43:51.915Z,6132.00
2018-10-07T17:45:23.285Z,5240.00
2018-10-07T17:46:54.857Z,4876.00
2018-10-07T17:48:26.606Z,4892.00
2018-10-07T17:49:58.004Z,5504.00
2018-10-07T17:51:29.575Z,5460.00
2018-10-07T17:53:01.350Z,5584.00
2018-10-07T17:54:32.720Z,5752.00
2018-10-07T17:56:04.396Z,6656.00
2018-10-07T17:57:35.867Z,9368.00
2018-10-07T17:59:07.644Z,7872.00
2018-10-07T18:00:39.008Z,5856.00
2018-10-07T18:03:42.154Z,5560.00
2018-10-07T18:05:13.930Z,6668.00
2018-10-07T18:06:45.298Z,7236.00
2018-10-07T18:08:16.870Z,7208.00
2018-10-07T18:09:48.445Z,8016.00
2018-10-07T18:11:20.016Z,8876.00
2018-10-07T18:12:51.790Z,8672.00
2018-10-07T18:15:55.137Z,7320.00
2018-10-07T18:18:57.879Z,5472.00
2018-10-07T18:20:29.451Z,5468.00
2018-10-07T18:22:01.027Z,6024.00
2018-10-07T18:23:32.595Z,6484.00
2018-10-07T18:25:04.167Z,6724.00
2018-10-07T18:26:35.941Z,6672.00
2018-10-07T18:28:07.314Z,6812.00
2018-10-07T18:32:42.030Z,6028.00
2018-10-07T18:34:13.817Z,6836.00
2018-10-07T18:35:45.172Z,7868.00
2018-10-07T18:37:16.745Z,7580.00
2018-10-07T18:38:48.318Z,6928.00
2018-10-07T18:40:19.891Z,6864.00
2018-10-07T18:41:51.465Z,7596.00
2018-10-07T18:43:23.035Z,8064.00
2018-10-07T18:44:54.609Z,8044.00
2018-10-07T18:46:26.180Z,7724.00
2018-10-07T18:49:29.326Z,7552.00
2018-10-07T18:52:32.775Z,7428.00
2018-10-07T18:54:04.247Z,8732.00
2018-10-07T18:55:36.123Z,10624.00
2018-10-07T18:57:07.495Z,11496.00
2018-10-07T18:58:39.069Z,10676.00
2018-10-07T19:00:10.540Z,10612.00
2018-10-07T19:03:13.483Z,10592.00
2018-10-07T19:04:45.357Z,10788.00
2018-10-07T19:06:16.630Z,10056.00
2018-10-07T19:07:48.405Z,8472.00
2018-10-07T19:09:19.776Z,7372.00
2018-10-07T19:12:23.022Z,6060.00
2018-10-07T19:13:54.495Z,5344.00
2018-10-07T19:15:26.068Z,4612.00
2018-10-07T19:16:57.645Z,4104.00
2018-10-07T19:18:29.515Z,3768.00
2018-10-07T19:20:00.789Z,3820.00
2018-10-07T19:21:32.360Z,4076.00
2018-10-07T19:23:04.438Z,3976.00
2018-10-07T19:24:35.504Z,3524.00
2018-10-07T19:30:42.829Z,2920.00
2018-10-07T19:32:13.368Z,2996.00
2018-10-07T19:33:45.143Z,2976.00
2018-10-07T19:36:48.437Z,2740.00
2018-10-07T19:38:19.966Z,2612.00
2018-10-07T19:39:51.232Z,2536.00
2018-10-07T19:41:22.804Z,2448.00
2018-10-07T19:42:54.377Z,2380.00
2018-10-07T19:44:26.477Z,2228.00
2018-10-07T19:45:57.523Z,2112.00
2018-10-07T19:47:29.096Z,2112.00
2018-10-07T19:49:00.869Z,2208.00
2018-10-07T19:50:32.244Z,2144.00
2018-10-07T19:53:36.347Z,1960.00
2018-10-07T19:56:38.533Z,1760.00
2018-10-07T19:58:10.107Z,1764.00
2018-10-07T19:59:41.705Z,1900.00
2018-10-07T20:01:13.255Z,2072.00
2018-10-07T20:02:45.128Z,2020.00
2018-10-07T20:04:16.396Z,1824.00
2018-10-07T20:05:48.171Z,1600.00
2018-10-07T20:07:19.543Z,1456.00
2018-10-07T20:08:51.314Z,1372.00
2018-10-07T20:10:22.686Z,1308.00
2018-10-07T20:11:54.763Z,1240.00
2018-10-07T20:13:26.063Z,1124.00
2018-10-07T20:16:29.281Z,1000.00
2018-10-07T20:19:32.158Z,924.00
2018-10-07T20:21:03.693Z,844.00
2018-10-07T20:22:35.264Z,744.00
2018-10-07T20:24:06.840Z,660.00
2018-10-07T20:25:38.409Z,652.00
2018-10-07T20:28:41.652Z,768.00
2018-10-07T20:30:13.125Z,856.00
2018-10-07T20:31:44.698Z,952.00
2018-10-07T20:33:16.268Z,1080.00
2018-10-07T20:34:47.840Z,1304.00
2018-10-07T20:36:19.412Z,1524.00
2018-10-07T20:37:51.489Z,1504.00
2018-10-07T20:39:22.559Z,1360.00
2018-10-07T20:40:54.236Z,1148.00
2018-10-07T20:42:25.697Z,896.00
2018-10-07T20:43:57.269Z,624.00
2018-10-07T20:45:28.840Z,468.00
2018-10-07T20:47:00.512Z,444.00
2018-10-07T20:48:32.025Z,412.00
2018-10-07T20:50:03.554Z,388.00
2018-10-07T20:51:35.127Z,344.00
2018-10-07T20:53:06.999Z,260.00
2018-10-07T20:54:38.268Z,204.00
2018-10-07T20:56:09.840Z,164.00
2018-10-07T20:59:12.982Z,116.00
2018-10-07T21:00:44.553Z,116.00
2018-10-07T21:02:16.125Z,104.00
2018-10-07T21:05:19.368Z,88.00
2018-10-07T21:06:50.840Z,88.00
2018-10-07T21:08:22.409Z,84.00
2018-10-07T21:11:25.551Z,64.00
2018-10-07T21:12:57.122Z,60.00
2018-10-07T21:14:28.701Z,48.00
2018-10-07T21:16:00.267Z,36.00
2018-10-07T21:17:31.934Z,24.00
2018-10-07T21:19:03.711Z,12.00
2018-10-07T21:20:34.974Z,8.00
2018-10-07T21:22:06.545Z,8.00
2018-10-07T21:23:38.317Z,4.00
2018-10-07T21:25:09.687Z,4.00
2018-10-07T21:26:41.259Z,0.00
2018-10-07T21:28:12.829Z,0.00
2018-10-07T21:29:44.454Z,0.00
2018-10-07T21:31:15.968Z,0.00
2018-10-07T21:32:48.049Z,0.00
2018-10-07T21:34:19.113Z,0.00
2018-10-07T21:35:50.680Z,0.00
2018-10-07T21:37:22.314Z,0.00
2018-10-07T21:38:53.822Z,0.00
2018-10-07T21:40:25.410Z,0.00
2018-10-07T21:41:57.109Z,0.00
2018-10-07T21:43:28.532Z,0.00
2018-10-07T21:45:00.105Z,0.00
2018-10-07T21:46:31.729Z,0.00
2018-10-07T21:48:03.245Z,0.00
2018-10-07T21:49:34.878Z,0.00
2018-10-07T21:51:06.386Z,0.00
2018-10-07T21:52:37.955Z,0.00
2018-10-07T21:54:09.627Z,0.00
2018-10-07T21:57:12.667Z,0.00